This is the latest recevied weather packets stored in our database for station/object OK1HOL-14. If no packets are shown the sender has not sent any weather packets the latest 1 day(s).
| Time | Temp. | Humidity | Pressure | Rain* | Wind** | Luminosity | Snow |
|---|---|---|---|---|---|---|---|
| 1778106215 | 13.33° C | 91% | 1008.2 hPa | - | - | - | - |
| 1778105615 | 13.33° C | 91% | 1008.3 hPa | - | - | - | - |
| 1778105015 | 13.33° C | 90% | 1008.2 hPa | - | - | - | - |
| 1778103815 | 13.33° C | 91% | 1008.2 hPa | - | - | - | - |
| 1778103215 | 13.33° C | 90% | 1008.3 hPa | - | - | - | - |
| 1778102615 | 13.33° C | 89% | 1008.1 hPa | - | - | - | - |
| 1778101415 | 13.33° C | 88% | 1007.8 hPa | - | - | - | - |
| 1778100815 | 13.33° C | 88% | 1007.7 hPa | - | - | - | - |
| 1778100215 | 13.33° C | 88% | 1007.4 hPa | - | - | - | - |
| 1778099015 | 13.33° C | 88% | 1007.8 hPa | - | - | - | - |
| 1778098415 | 13.89° C | 88% | 1007.9 hPa | - | - | - | - |
| 1778097815 | 13.89° C | 87% | 1007.8 hPa | - | - | - | - |
| 1778096015 | 13.89° C | 84% | 1006.8 hPa | - | - | - | - |
| 1778081015 | 18.33° C | 59% | 1006.9 hPa | - | - | - | - |
| 1778078614 | 20° C | 56% | 1007 hPa | - | - | - | - |
| 1778076814 | 20.56° C | 53% | 1007 hPa | - | - | - | - |
| 1778073814 | 20.56° C | 53% | 1007.2 hPa | - | - | - | - |
| 1778069014 | 20° C | 56% | 1008.1 hPa | - | - | - | - |
| 1778067214 | 19.44° C | 57% | 1008.1 hPa | - | - | - | - |
| 1778063613 | 18.33° C | 61% | 1008.4 hPa | - | - | - | - |
| 1778063013 | 17.78° C | 61% | 1008.5 hPa | - | - | - | - |
| 1778061213 | 17.78° C | 63% | 1008.4 hPa | - | - | - | - |
| 1778060621 | 17.22° C | 64% | 1008.3 hPa | - | - | - | - |
| 1778060013 | 17.22° C | 65% | 1008.3 hPa | - | - | - | - |
| 1778059413 | 17.22° C | 65% | 1008.3 hPa | - | - | - | - |
* Rain since midnight (hover to see other rain measurements)
** Current wind speed in m/s (hover to see current wind gust speed)